sensor_id;sensor_type;location;lat;lon;timestamp;P1;durP1;ratioP1;P2;durP2;ratioP2
11614;SDS011;5863;52.832;4.758;2023-04-01T00:01:28;11.43;;;9.02;;
11614;SDS011;5863;52.832;4.758;2023-04-01T00:03:55;14.60;;;8.88;;
11614;SDS011;5863;52.832;4.758;2023-04-01T00:06:22;11.57;;;9.05;;
11614;SDS011;5863;52.832;4.758;2023-04-01T00:08:49;10.27;;;8.05;;
11614;SDS011;5863;52.832;4.758;2023-04-01T00:11:17;10.77;;;7.63;;
11614;SDS011;5863;52.832;4.758;2023-04-01T00:13:44;9.38;;;7.50;;
11614;SDS011;5863;52.832;4.758;2023-04-01T00:16:12;12.48;;;9.02;;
11614;SDS011;5863;52.832;4.758;2023-04-01T00:18:39;11.98;;;8.10;;
11614;SDS011;5863;52.832;4.758;2023-04-01T00:21:06;11.43;;;8.63;;
11614;SDS011;5863;52.832;4.758;2023-04-01T00:23:33;8.73;;;7.82;;
11614;SDS011;5863;52.832;4.758;2023-04-01T00:26:01;9.73;;;8.05;;
11614;SDS011;5863;52.832;4.758;2023-04-01T00:28:28;9.05;;;7.35;;
11614;SDS011;5863;52.832;4.758;2023-04-01T00:30:56;9.55;;;7.70;;
11614;SDS011;5863;52.832;4.758;2023-04-01T00:33:24;7.78;;;6.80;;
11614;SDS011;5863;52.832;4.758;2023-04-01T00:35:52;6.40;;;5.80;;
11614;SDS011;5863;52.832;4.758;2023-04-01T00:38:19;6.65;;;5.30;;
11614;SDS011;5863;52.832;4.758;2023-04-01T00:40:46;6.38;;;5.38;;
11614;SDS011;5863;52.832;4.758;2023-04-01T00:43:14;8.50;;;5.90;;
11614;SDS011;5863;52.832;4.758;2023-04-01T00:45:45;8.18;;;6.00;;
11614;SDS011;5863;52.832;4.758;2023-04-01T00:48:13;6.78;;;6.07;;
11614;SDS011;5863;52.832;4.758;2023-04-01T00:50:46;7.78;;;6.68;;
11614;SDS011;5863;52.832;4.758;2023-04-01T00:53:16;8.68;;;7.20;;
11614;SDS011;5863;52.832;4.758;2023-04-01T00:55:45;8.18;;;7.13;;
11614;SDS011;5863;52.832;4.758;2023-04-01T00:58:17;11.98;;;9.18;;
11614;SDS011;5863;52.832;4.758;2023-04-01T01:00:48;10.25;;;8.10;;
11614;SDS011;5863;52.832;4.758;2023-04-01T01:03:16;11.60;;;9.60;;
11614;SDS011;5863;52.832;4.758;2023-04-01T01:05:49;12.00;;;9.25;;
11614;SDS011;5863;52.832;4.758;2023-04-01T01:08:35;14.18;;;9.23;;
11614;SDS011;5863;52.832;4.758;2023-04-01T01:11:12;11.00;;;9.50;;
11614;SDS011;5863;52.832;4.758;2023-04-01T01:13:45;11.32;;;9.52;;
11614;SDS011;5863;52.832;4.758;2023-04-01T01:16:20;14.20;;;9.50;;
11614;SDS011;5863;52.832;4.758;2023-04-01T01:18:53;14.70;;;10.40;;
11614;SDS011;5863;52.832;4.758;2023-04-01T01:21:32;12.27;;;10.05;;
11614;SDS011;5863;52.832;4.758;2023-04-01T01:24:22;11.68;;;9.88;;
11614;SDS011;5863;52.832;4.758;2023-04-01T01:27:00;13.23;;;10.00;;
11614;SDS011;5863;52.832;4.758;2023-04-01T01:29:35;14.45;;;10.32;;
11614;SDS011;5863;52.832;4.758;2023-04-01T01:32:16;11.75;;;10.00;;
11614;SDS011;5863;52.832;4.758;2023-04-01T01:34:52;13.98;;;11.05;;
11614;SDS011;5863;52.832;4.758;2023-04-01T01:37:29;12.50;;;9.88;;
11614;SDS011;5863;52.832;4.758;2023-04-01T01:39:59;12.73;;;10.77;;
11614;SDS011;5863;52.832;4.758;2023-04-01T01:42:30;13.10;;;10.45;;
11614;SDS011;5863;52.832;4.758;2023-04-01T01:44:59;11.18;;;9.98;;
11614;SDS011;5863;52.832;4.758;2023-04-01T01:47:27;11.57;;;9.60;;
11614;SDS011;5863;52.832;4.758;2023-04-01T01:49:55;10.02;;;9.02;;
11614;SDS011;5863;52.832;4.758;2023-04-01T01:52:24;9.80;;;8.70;;
11614;SDS011;5863;52.832;4.758;2023-04-01T01:54:54;9.02;;;8.10;;
11614;SDS011;5863;52.832;4.758;2023-04-01T01:57:23;8.23;;;7.20;;
11614;SDS011;5863;52.832;4.758;2023-04-01T01:59:54;9.27;;;7.40;;
11614;SDS011;5863;52.832;4.758;2023-04-01T02:02:24;8.85;;;7.95;;
11614;SDS011;5863;52.832;4.758;2023-04-01T02:04:52;11.80;;;8.95;;
11614;SDS011;5863;52.832;4.758;2023-04-01T02:07:20;9.70;;;8.70;;
11614;SDS011;5863;52.832;4.758;2023-04-01T02:09:51;11.75;;;8.70;;
11614;SDS011;5863;52.832;4.758;2023-04-01T02:12:18;12.07;;;8.90;;
11614;SDS011;5863;52.832;4.758;2023-04-01T02:14:49;12.65;;;8.57;;
11614;SDS011;5863;52.832;4.758;2023-04-01T02:17:19;12.07;;;9.45;;
11614;SDS011;5863;52.832;4.758;2023-04-01T02:19:47;11.98;;;9.45;;
11614;SDS011;5863;52.832;4.758;2023-04-01T02:22:18;10.38;;;8.60;;
11614;SDS011;5863;52.832;4.758;2023-04-01T02:24:48;12.38;;;9.10;;
11614;SDS011;5863;52.832;4.758;2023-04-01T02:27:17;12.55;;;8.77;;
11614;SDS011;5863;52.832;4.758;2023-04-01T02:29:45;14.10;;;9.35;;
11614;SDS011;5863;52.832;4.758;2023-04-01T02:32:12;10.35;;;8.60;;
11614;SDS011;5863;52.832;4.758;2023-04-01T02:34:40;12.20;;;9.10;;
11614;SDS011;5863;52.832;4.758;2023-04-01T02:37:08;13.00;;;10.20;;
11614;SDS011;5863;52.832;4.758;2023-04-01T02:39:35;12.45;;;9.93;;
11614;SDS011;5863;52.832;4.758;2023-04-01T02:42:01;11.88;;;9.70;;
11614;SDS011;5863;52.832;4.758;2023-04-01T02:44:30;8.93;;;7.60;;
11614;SDS011;5863;52.832;4.758;2023-04-01T02:46:56;9.45;;;7.35;;
11614;SDS011;5863;52.832;4.758;2023-04-01T02:49:23;7.63;;;6.72;;
11614;SDS011;5863;52.832;4.758;2023-04-01T02:51:50;8.18;;;6.75;;
11614;SDS011;5863;52.832;4.758;2023-04-01T02:54:17;9.43;;;7.50;;
11614;SDS011;5863;52.832;4.758;2023-04-01T02:56:44;9.13;;;8.02;;
11614;SDS011;5863;52.832;4.758;2023-04-01T02:59:11;10.90;;;8.02;;
11614;SDS011;5863;52.832;4.758;2023-04-01T03:01:39;9.57;;;7.88;;
11614;SDS011;5863;52.832;4.758;2023-04-01T03:04:06;13.57;;;7.22;;
11614;SDS011;5863;52.832;4.758;2023-04-01T03:06:33;9.88;;;7.78;;
11614;SDS011;5863;52.832;4.758;2023-04-01T03:08:59;12.27;;;7.80;;
11614;SDS011;5863;52.832;4.758;2023-04-01T03:11:26;11.93;;;8.20;;
11614;SDS011;5863;52.832;4.758;2023-04-01T03:13:53;13.95;;;8.65;;
11614;SDS011;5863;52.832;4.758;2023-04-01T03:16:19;12.57;;;8.80;;
11614;SDS011;5863;52.832;4.758;2023-04-01T03:18:47;11.48;;;8.55;;
11614;SDS011;5863;52.832;4.758;2023-04-01T03:21:17;14.05;;;8.82;;
11614;SDS011;5863;52.832;4.758;2023-04-01T03:23:45;12.77;;;8.55;;
11614;SDS011;5863;52.832;4.758;2023-04-01T03:26:12;11.68;;;8.13;;
11614;SDS011;5863;52.832;4.758;2023-04-01T03:28:39;13.02;;;8.18;;
11614;SDS011;5863;52.832;4.758;2023-04-01T03:31:06;11.85;;;8.15;;
11614;SDS011;5863;52.832;4.758;2023-04-01T03:33:32;13.68;;;8.90;;
11614;SDS011;5863;52.832;4.758;2023-04-01T03:36:01;12.35;;;8.45;;
11614;SDS011;5863;52.832;4.758;2023-04-01T03:38:28;10.77;;;8.10;;
11614;SDS011;5863;52.832;4.758;2023-04-01T03:40:55;13.85;;;8.10;;
11614;SDS011;5863;52.832;4.758;2023-04-01T03:43:21;10.25;;;8.35;;
11614;SDS011;5863;52.832;4.758;2023-04-01T03:45:49;11.27;;;8.80;;
11614;SDS011;5863;52.832;4.758;2023-04-01T03:48:18;12.98;;;7.75;;
11614;SDS011;5863;52.832;4.758;2023-04-01T03:50:45;13.85;;;8.68;;
11614;SDS011;5863;52.832;4.758;2023-04-01T03:53:14;11.65;;;8.70;;
11614;SDS011;5863;52.832;4.758;2023-04-01T03:55:41;11.43;;;8.57;;
11614;SDS011;5863;52.832;4.758;2023-04-01T03:58:07;14.45;;;8.40;;
11614;SDS011;5863;52.832;4.758;2023-04-01T04:00:35;13.18;;;9.55;;
11614;SDS011;5863;52.832;4.758;2023-04-01T04:03:02;19.27;;;11.15;;
11614;SDS011;5863;52.832;4.758;2023-04-01T04:05:29;17.83;;;11.55;;
11614;SDS011;5863;52.832;4.758;2023-04-01T04:07:56;20.58;;;12.10;;
11614;SDS011;5863;52.832;4.758;2023-04-01T04:10:24;19.98;;;12.07;;
11614;SDS011;5863;52.832;4.758;2023-04-01T04:12:51;18.45;;;11.65;;
11614;SDS011;5863;52.832;4.758;2023-04-01T04:15:18;18.48;;;12.52;;
11614;SDS011;5863;52.832;4.758;2023-04-01T04:17:45;18.40;;;12.43;;
11614;SDS011;5863;52.832;4.758;2023-04-01T04:20:12;16.38;;;11.88;;
11614;SDS011;5863;52.832;4.758;2023-04-01T04:22:38;22.50;;;12.45;;
11614;SDS011;5863;52.832;4.758;2023-04-01T04:25:05;14.43;;;10.52;;
11614;SDS011;5863;52.832;4.758;2023-04-01T04:27:34;17.38;;;11.55;;
11614;SDS011;5863;52.832;4.758;2023-04-01T04:30:01;22.30;;;11.88;;
11614;SDS011;5863;52.832;4.758;2023-04-01T04:32:29;19.40;;;10.65;;
11614;SDS011;5863;52.832;4.758;2023-04-01T04:34:56;14.27;;;10.05;;
11614;SDS011;5863;52.832;4.758;2023-04-01T04:37:23;16.70;;;10.07;;
11614;SDS011;5863;52.832;4.758;2023-04-01T04:39:50;21.25;;;10.50;;
11614;SDS011;5863;52.832;4.758;2023-04-01T04:42:17;21.60;;;10.80;;
11614;SDS011;5863;52.832;4.758;2023-04-01T04:44:45;24.40;;;10.90;;
11614;SDS011;5863;52.832;4.758;2023-04-01T04:47:12;20.63;;;9.63;;
11614;SDS011;5863;52.832;4.758;2023-04-01T04:49:39;22.33;;;10.68;;
11614;SDS011;5863;52.832;4.758;2023-04-01T04:52:05;20.35;;;10.32;;
11614;SDS011;5863;52.832;4.758;2023-04-01T04:54:32;24.75;;;11.27;;
11614;SDS011;5863;52.832;4.758;2023-04-01T04:56:59;26.20;;;12.63;;
11614;SDS011;5863;52.832;4.758;2023-04-01T04:59:26;25.63;;;13.13;;
11614;SDS011;5863;52.832;4.758;2023-04-01T05:01:54;27.45;;;12.73;;
11614;SDS011;5863;52.832;4.758;2023-04-01T05:04:20;25.00;;;12.68;;
11614;SDS011;5863;52.832;4.758;2023-04-01T05:06:47;25.17;;;12.52;;
11614;SDS011;5863;52.832;4.758;2023-04-01T05:09:14;27.05;;;13.05;;
11614;SDS011;5863;52.832;4.758;2023-04-01T05:11:41;26.90;;;12.63;;
11614;SDS011;5863;52.832;4.758;2023-04-01T05:14:11;29.73;;;13.82;;
11614;SDS011;5863;52.832;4.758;2023-04-01T05:16:40;29.23;;;14.20;;
11614;SDS011;5863;52.832;4.758;2023-04-01T05:19:08;35.40;;;15.23;;
11614;SDS011;5863;52.832;4.758;2023-04-01T05:21:35;33.65;;;14.63;;
11614;SDS011;5863;52.832;4.758;2023-04-01T05:24:01;36.45;;;15.75;;
11614;SDS011;5863;52.832;4.758;2023-04-01T05:26:28;25.10;;;13.25;;
11614;SDS011;5863;52.832;4.758;2023-04-01T05:28:55;29.83;;;15.13;;
11614;SDS011;5863;52.832;4.758;2023-04-01T05:31:24;33.47;;;14.10;;
11614;SDS011;5863;52.832;4.758;2023-04-01T05:33:51;32.53;;;14.23;;
11614;SDS011;5863;52.832;4.758;2023-04-01T05:36:20;29.33;;;14.13;;
11614;SDS011;5863;52.832;4.758;2023-04-01T05:38:47;24.88;;;13.32;;
11614;SDS011;5863;52.832;4.758;2023-04-01T05:41:14;25.77;;;13.77;;
11614;SDS011;5863;52.832;4.758;2023-04-01T05:43:41;27.48;;;13.35;;
11614;SDS011;5863;52.832;4.758;2023-04-01T05:46:08;28.33;;;14.13;;
11614;SDS011;5863;52.832;4.758;2023-04-01T05:48:35;33.63;;;13.57;;
11614;SDS011;5863;52.832;4.758;2023-04-01T05:51:03;29.45;;;14.38;;
11614;SDS011;5863;52.832;4.758;2023-04-01T05:53:32;32.60;;;14.70;;
11614;SDS011;5863;52.832;4.758;2023-04-01T05:56:01;32.70;;;14.98;;
11614;SDS011;5863;52.832;4.758;2023-04-01T05:58:28;29.83;;;15.07;;
11614;SDS011;5863;52.832;4.758;2023-04-01T06:00:59;31.05;;;14.82;;
11614;SDS011;5863;52.832;4.758;2023-04-01T06:03:27;26.60;;;14.85;;
11614;SDS011;5863;52.832;4.758;2023-04-01T06:05:54;35.05;;;15.20;;
11614;SDS011;5863;52.832;4.758;2023-04-01T06:08:21;31.83;;;15.68;;
11614;SDS011;5863;52.832;4.758;2023-04-01T06:13:46;37.85;;;15.57;;
11614;SDS011;5863;52.832;4.758;2023-04-01T06:16:25;26.00;;;14.00;;
11614;SDS011;5863;52.832;4.758;2023-04-01T06:19:11;31.65;;;14.77;;
11614;SDS011;5863;52.832;4.758;2023-04-01T06:22:03;27.55;;;13.57;;
11614;SDS011;5863;52.832;4.758;2023-04-01T06:24:49;26.35;;;13.38;;
11614;SDS011;5863;52.832;4.758;2023-04-01T06:27:45;27.98;;;12.52;;
11614;SDS011;5863;52.832;4.758;2023-04-01T06:30:32;23.55;;;11.60;;
11614;SDS011;5863;52.832;4.758;2023-04-01T06:33:15;23.10;;;11.13;;
11614;SDS011;5863;52.832;4.758;2023-04-01T06:36:01;21.73;;;10.65;;
11614;SDS011;5863;52.832;4.758;2023-04-01T06:38:51;23.23;;;11.70;;
11614;SDS011;5863;52.832;4.758;2023-04-01T06:41:31;28.17;;;12.50;;
11614;SDS011;5863;52.832;4.758;2023-04-01T06:44:25;22.30;;;11.40;;
11614;SDS011;5863;52.832;4.758;2023-04-01T06:46:59;27.27;;;11.00;;
11614;SDS011;5863;52.832;4.758;2023-04-01T06:49:37;26.08;;;11.15;;
11614;SDS011;5863;52.832;4.758;2023-04-01T06:52:16;21.48;;;10.52;;
11614;SDS011;5863;52.832;4.758;2023-04-01T06:54:49;22.98;;;10.00;;
11614;SDS011;5863;52.832;4.758;2023-04-01T06:57:20;21.67;;;9.93;;
11614;SDS011;5863;52.832;4.758;2023-04-01T06:59:55;23.45;;;10.73;;
11614;SDS011;5863;52.832;4.758;2023-04-01T07:02:24;18.75;;;9.05;;
11614;SDS011;5863;52.832;4.758;2023-04-01T07:04:58;16.83;;;8.95;;
11614;SDS011;5863;52.832;4.758;2023-04-01T07:07:29;17.75;;;8.77;;
11614;SDS011;5863;52.832;4.758;2023-04-01T07:10:02;15.07;;;7.68;;
11614;SDS011;5863;52.832;4.758;2023-04-01T07:12:37;13.90;;;7.75;;
11614;SDS011;5863;52.832;4.758;2023-04-01T07:15:13;11.10;;;7.13;;
11614;SDS011;5863;52.832;4.758;2023-04-01T07:17:44;8.70;;;6.05;;
11614;SDS011;5863;52.832;4.758;2023-04-01T07:20:13;9.40;;;6.32;;
11614;SDS011;5863;52.832;4.758;2023-04-01T07:22:46;11.30;;;6.60;;
11614;SDS011;5863;52.832;4.758;2023-04-01T07:25:16;9.90;;;6.63;;
11614;SDS011;5863;52.832;4.758;2023-04-01T07:27:45;11.07;;;7.15;;
11614;SDS011;5863;52.832;4.758;2023-04-01T07:30:17;11.77;;;7.30;;
11614;SDS011;5863;52.832;4.758;2023-04-01T07:32:47;11.73;;;7.18;;
11614;SDS011;5863;52.832;4.758;2023-04-01T07:35:21;15.10;;;8.88;;
11614;SDS011;5863;52.832;4.758;2023-04-01T07:37:56;15.93;;;8.38;;
11614;SDS011;5863;52.832;4.758;2023-04-01T07:40:36;15.00;;;9.20;;
11614;SDS011;5863;52.832;4.758;2023-04-01T07:46:07;19.40;;;10.40;;
11614;SDS011;5863;52.832;4.758;2023-04-01T07:48:42;18.15;;;10.45;;
11614;SDS011;5863;52.832;4.758;2023-04-01T07:51:15;16.02;;;9.25;;
11614;SDS011;5863;52.832;4.758;2023-04-01T07:53:47;13.73;;;8.73;;
11614;SDS011;5863;52.832;4.758;2023-04-01T07:56:25;15.00;;;8.70;;
11614;SDS011;5863;52.832;4.758;2023-04-01T07:59:00;13.50;;;7.53;;
11614;SDS011;5863;52.832;4.758;2023-04-01T08:01:36;15.40;;;8.00;;
11614;SDS011;5863;52.832;4.758;2023-04-01T08:04:17;12.95;;;7.47;;
11614;SDS011;5863;52.832;4.758;2023-04-01T08:06:52;12.52;;;7.47;;
11614;SDS011;5863;52.832;4.758;2023-04-01T08:09:27;12.30;;;7.10;;
11614;SDS011;5863;52.832;4.758;2023-04-01T08:12:02;11.90;;;6.53;;
11614;SDS011;5863;52.832;4.758;2023-04-01T08:14:39;13.63;;;7.50;;
11614;SDS011;5863;52.832;4.758;2023-04-01T08:17:15;14.07;;;8.68;;
11614;SDS011;5863;52.832;4.758;2023-04-01T08:19:55;12.98;;;8.35;;
11614;SDS011;5863;52.832;4.758;2023-04-01T08:22:29;13.45;;;8.20;;
11614;SDS011;5863;52.832;4.758;2023-04-01T08:25:00;15.90;;;9.77;;
11614;SDS011;5863;52.832;4.758;2023-04-01T08:27:34;18.33;;;10.15;;
11614;SDS011;5863;52.832;4.758;2023-04-01T08:30:04;19.33;;;11.20;;
11614;SDS011;5863;52.832;4.758;2023-04-01T08:32:42;16.65;;;10.10;;
11614;SDS011;5863;52.832;4.758;2023-04-01T08:35:14;16.00;;;8.82;;
11614;SDS011;5863;52.832;4.758;2023-04-01T08:37:50;14.20;;;7.68;;
11614;SDS011;5863;52.832;4.758;2023-04-01T08:40:32;11.40;;;7.13;;
11614;SDS011;5863;52.832;4.758;2023-04-01T08:43:09;8.32;;;6.43;;
11614;SDS011;5863;52.832;4.758;2023-04-01T08:45:44;11.13;;;6.93;;
11614;SDS011;5863;52.832;4.758;2023-04-01T08:51:36;12.90;;;7.82;;
11614;SDS011;5863;52.832;4.758;2023-04-01T08:54:40;16.95;;;9.50;;
11614;SDS011;5863;52.832;4.758;2023-04-01T08:57:17;19.15;;;10.07;;
11614;SDS011;5863;52.832;4.758;2023-04-01T08:59:54;23.38;;;11.43;;
11614;SDS011;5863;52.832;4.758;2023-04-01T09:02:39;24.67;;;11.07;;
11614;SDS011;5863;52.832;4.758;2023-04-01T09:05:19;21.92;;;11.35;;
11614;SDS011;5863;52.832;4.758;2023-04-01T09:08:10;20.80;;;10.57;;
11614;SDS011;5863;52.832;4.758;2023-04-01T09:13:42;23.10;;;10.43;;
11614;SDS011;5863;52.832;4.758;2023-04-01T09:16:39;22.13;;;10.82;;
11614;SDS011;5863;52.832;4.758;2023-04-01T09:19:28;22.70;;;10.38;;
11614;SDS011;5863;52.832;4.758;2023-04-01T09:22:09;23.05;;;10.98;;
11614;SDS011;5863;52.832;4.758;2023-04-01T09:27:53;18.05;;;10.02;;
11614;SDS011;5863;52.832;4.758;2023-04-01T09:33:35;21.40;;;9.73;;
11614;SDS011;5863;52.832;4.758;2023-04-01T09:36:34;16.98;;;9.23;;
11614;SDS011;5863;52.832;4.758;2023-04-01T09:39:13;17.83;;;8.65;;
11614;SDS011;5863;52.832;4.758;2023-04-01T09:41:55;17.20;;;8.55;;
11614;SDS011;5863;52.832;4.758;2023-04-01T09:44:32;15.57;;;8.07;;
11614;SDS011;5863;52.832;4.758;2023-04-01T09:47:05;16.90;;;7.72;;
11614;SDS011;5863;52.832;4.758;2023-04-01T09:49:43;19.98;;;7.63;;
11614;SDS011;5863;52.832;4.758;2023-04-01T09:52:27;15.80;;;6.68;;
11614;SDS011;5863;52.832;4.758;2023-04-01T09:55:06;16.92;;;6.30;;
11614;SDS011;5863;52.832;4.758;2023-04-01T10:00:51;17.08;;;5.40;;
11614;SDS011;5863;52.832;4.758;2023-04-01T10:06:45;12.85;;;5.40;;
11614;SDS011;5863;52.832;4.758;2023-04-01T10:12:34;8.43;;;3.80;;
11614;SDS011;5863;52.832;4.758;2023-04-01T10:15:32;10.15;;;3.85;;
11614;SDS011;5863;52.832;4.758;2023-04-01T10:18:30;8.00;;;3.17;;
11614;SDS011;5863;52.832;4.758;2023-04-01T10:24:39;10.68;;;2.67;;
11614;SDS011;5863;52.832;4.758;2023-04-01T10:27:28;6.70;;;2.17;;
11614;SDS011;5863;52.832;4.758;2023-04-01T10:36:48;7.50;;;2.33;;
11614;SDS011;5863;52.832;4.758;2023-04-01T10:45:37;7.28;;;2.35;;
11614;SDS011;5863;52.832;4.758;2023-04-01T10:48:31;7.78;;;2.28;;
11614;SDS011;5863;52.832;4.758;2023-04-01T10:51:21;10.45;;;2.83;;
11614;SDS011;5863;52.832;4.758;2023-04-01T10:54:13;6.57;;;2.50;;
11614;SDS011;5863;52.832;4.758;2023-04-01T10:56:56;11.77;;;2.97;;
11614;SDS011;5863;52.832;4.758;2023-04-01T10:59:45;8.18;;;2.88;;
11614;SDS011;5863;52.832;4.758;2023-04-01T11:12:36;15.77;;;4.60;;
11614;SDS011;5863;52.832;4.758;2023-04-01T11:24:39;9.65;;;3.40;;
11614;SDS011;5863;52.832;4.758;2023-04-01T11:27:21;5.72;;;2.53;;
11614;SDS011;5863;52.832;4.758;2023-04-01T11:30:06;7.95;;;2.80;;
11614;SDS011;5863;52.832;4.758;2023-04-01T11:32:52;11.43;;;3.42;;
11614;SDS011;5863;52.832;4.758;2023-04-01T11:35:25;10.60;;;2.97;;
11614;SDS011;5863;52.832;4.758;2023-04-01T11:38:07;11.50;;;3.55;;
11614;SDS011;5863;52.832;4.758;2023-04-01T11:40:54;12.88;;;3.60;;
11614;SDS011;5863;52.832;4.758;2023-04-01T11:43:29;9.95;;;3.45;;
11614;SDS011;5863;52.832;4.758;2023-04-01T11:46:04;8.80;;;3.35;;
11614;SDS011;5863;52.832;4.758;2023-04-01T11:51:40;9.95;;;3.33;;
11614;SDS011;5863;52.832;4.758;2023-04-01T11:54:31;14.48;;;3.58;;
11614;SDS011;5863;52.832;4.758;2023-04-01T11:57:17;8.35;;;3.30;;
11614;SDS011;5863;52.832;4.758;2023-04-01T12:00:15;11.73;;;3.35;;
11614;SDS011;5863;52.832;4.758;2023-04-01T12:03:01;12.50;;;3.90;;
11614;SDS011;5863;52.832;4.758;2023-04-01T12:05:43;17.48;;;4.28;;
11614;SDS011;5863;52.832;4.758;2023-04-01T12:08:20;14.13;;;4.13;;
11614;SDS011;5863;52.832;4.758;2023-04-01T12:10:57;7.80;;;3.78;;
11614;SDS011;5863;52.832;4.758;2023-04-01T12:13:35;13.13;;;3.67;;
11614;SDS011;5863;52.832;4.758;2023-04-01T12:16:15;13.32;;;4.15;;
11614;SDS011;5863;52.832;4.758;2023-04-01T12:18:56;16.70;;;4.32;;
11614;SDS011;5863;52.832;4.758;2023-04-01T12:21:28;10.88;;;3.90;;
11614;SDS011;5863;52.832;4.758;2023-04-01T12:24:25;11.27;;;4.10;;
11614;SDS011;5863;52.832;4.758;2023-04-01T12:27:07;11.13;;;3.60;;
11614;SDS011;5863;52.832;4.758;2023-04-01T12:30:02;14.30;;;3.50;;
11614;SDS011;5863;52.832;4.758;2023-04-01T12:32:43;9.73;;;3.50;;
11614;SDS011;5863;52.832;4.758;2023-04-01T12:35:19;13.02;;;3.50;;
11614;SDS011;5863;52.832;4.758;2023-04-01T12:37:50;12.32;;;3.67;;
11614;SDS011;5863;52.832;4.758;2023-04-01T12:40:31;8.25;;;2.80;;
11614;SDS011;5863;52.832;4.758;2023-04-01T12:46:05;6.93;;;2.67;;
11614;SDS011;5863;52.832;4.758;2023-04-01T12:48:55;6.90;;;3.22;;
11614;SDS011;5863;52.832;4.758;2023-04-01T13:00:39;13.07;;;3.20;;
11614;SDS011;5863;52.832;4.758;2023-04-01T13:03:31;14.73;;;3.40;;
11614;SDS011;5863;52.832;4.758;2023-04-01T13:06:31;10.93;;;3.00;;
11614;SDS011;5863;52.832;4.758;2023-04-01T13:09:24;13.10;;;3.15;;
11614;SDS011;5863;52.832;4.758;2023-04-01T13:12:06;15.98;;;3.45;;
11614;SDS011;5863;52.832;4.758;2023-04-01T13:14:50;10.73;;;2.90;;
11614;SDS011;5863;52.832;4.758;2023-04-01T13:17:52;12.88;;;3.55;;
11614;SDS011;5863;52.832;4.758;2023-04-01T13:20:28;6.32;;;2.28;;
11614;SDS011;5863;52.832;4.758;2023-04-01T13:23:07;11.80;;;2.90;;
11614;SDS011;5863;52.832;4.758;2023-04-01T13:25:44;12.45;;;3.33;;
11614;SDS011;5863;52.832;4.758;2023-04-01T13:28:18;10.60;;;2.80;;
11614;SDS011;5863;52.832;4.758;2023-04-01T13:30:53;13.18;;;3.40;;
11614;SDS011;5863;52.832;4.758;2023-04-01T13:33:27;11.73;;;3.00;;
11614;SDS011;5863;52.832;4.758;2023-04-01T13:36:06;12.18;;;2.85;;
11614;SDS011;5863;52.832;4.758;2023-04-01T13:38:54;11.27;;;2.67;;
11614;SDS011;5863;52.832;4.758;2023-04-01T13:41:50;12.20;;;2.65;;
11614;SDS011;5863;52.832;4.758;2023-04-01T13:44:29;15.07;;;3.22;;
11614;SDS011;5863;52.832;4.758;2023-04-01T13:47:07;10.50;;;2.80;;
11614;SDS011;5863;52.832;4.758;2023-04-01T13:49:53;9.02;;;2.80;;
11614;SDS011;5863;52.832;4.758;2023-04-01T13:52:35;10.90;;;2.58;;
11614;SDS011;5863;52.832;4.758;2023-04-01T13:55:20;13.85;;;3.67;;
11614;SDS011;5863;52.832;4.758;2023-04-01T13:58:04;9.07;;;3.03;;
11614;SDS011;5863;52.832;4.758;2023-04-01T14:00:43;8.52;;;2.95;;
11614;SDS011;5863;52.832;4.758;2023-04-01T14:03:37;9.77;;;3.00;;
11614;SDS011;5863;52.832;4.758;2023-04-01T14:06:21;14.93;;;2.95;;
11614;SDS011;5863;52.832;4.758;2023-04-01T14:11:45;14.05;;;2.70;;
11614;SDS011;5863;52.832;4.758;2023-04-01T14:14:22;14.32;;;3.00;;
11614;SDS011;5863;52.832;4.758;2023-04-01T14:17:03;11.45;;;2.50;;
11614;SDS011;5863;52.832;4.758;2023-04-01T14:19:52;10.70;;;3.00;;
11614;SDS011;5863;52.832;4.758;2023-04-01T14:22:32;9.63;;;2.35;;
11614;SDS011;5863;52.832;4.758;2023-04-01T14:25:14;14.55;;;3.30;;
11614;SDS011;5863;52.832;4.758;2023-04-01T14:27:55;9.38;;;2.78;;
11614;SDS011;5863;52.832;4.758;2023-04-01T14:30:36;8.10;;;2.88;;
11614;SDS011;5863;52.832;4.758;2023-04-01T14:33:17;11.35;;;3.38;;
11614;SDS011;5863;52.832;4.758;2023-04-01T14:35:56;12.40;;;3.22;;
11614;SDS011;5863;52.832;4.758;2023-04-01T14:38:42;15.07;;;3.30;;
11614;SDS011;5863;52.832;4.758;2023-04-01T14:41:23;18.13;;;3.30;;
11614;SDS011;5863;52.832;4.758;2023-04-01T14:44:04;8.32;;;2.33;;
11614;SDS011;5863;52.832;4.758;2023-04-01T14:46:50;10.45;;;2.90;;
11614;SDS011;5863;52.832;4.758;2023-04-01T14:49:41;11.63;;;2.90;;
11614;SDS011;5863;52.832;4.758;2023-04-01T14:52:11;9.68;;;3.47;;
11614;SDS011;5863;52.832;4.758;2023-04-01T14:54:42;8.07;;;2.40;;
11614;SDS011;5863;52.832;4.758;2023-04-01T14:57:14;13.35;;;2.83;;
11614;SDS011;5863;52.832;4.758;2023-04-01T14:59:49;12.15;;;3.15;;
11614;SDS011;5863;52.832;4.758;2023-04-01T15:02:28;10.43;;;2.72;;
11614;SDS011;5863;52.832;4.758;2023-04-01T15:05:04;6.38;;;2.47;;
11614;SDS011;5863;52.832;4.758;2023-04-01T15:07:45;9.05;;;2.80;;
11614;SDS011;5863;52.832;4.758;2023-04-01T15:13:43;9.38;;;2.65;;
11614;SDS011;5863;52.832;4.758;2023-04-01T15:16:39;13.38;;;2.58;;
11614;SDS011;5863;52.832;4.758;2023-04-01T15:19:15;10.48;;;3.30;;
11614;SDS011;5863;52.832;4.758;2023-04-01T15:24:56;7.60;;;2.33;;
11614;SDS011;5863;52.832;4.758;2023-04-01T15:27:33;12.93;;;3.45;;
11614;SDS011;5863;52.832;4.758;2023-04-01T15:33:01;10.20;;;3.13;;
11614;SDS011;5863;52.832;4.758;2023-04-01T15:35:43;19.73;;;3.67;;
11614;SDS011;5863;52.832;4.758;2023-04-01T15:38:18;12.82;;;3.60;;
11614;SDS011;5863;52.832;4.758;2023-04-01T15:40:53;7.28;;;3.03;;
11614;SDS011;5863;52.832;4.758;2023-04-01T15:43:29;10.20;;;3.70;;
11614;SDS011;5863;52.832;4.758;2023-04-01T15:46:16;14.20;;;3.30;;
11614;SDS011;5863;52.832;4.758;2023-04-01T15:49:08;14.23;;;4.00;;
11614;SDS011;5863;52.832;4.758;2023-04-01T15:51:47;17.85;;;4.55;;
11614;SDS011;5863;52.832;4.758;2023-04-01T15:54:25;12.82;;;3.40;;
11614;SDS011;5863;52.832;4.758;2023-04-01T15:57:10;13.43;;;3.65;;
11614;SDS011;5863;52.832;4.758;2023-04-01T15:59:58;12.95;;;3.80;;
11614;SDS011;5863;52.832;4.758;2023-04-01T16:02:39;10.38;;;3.42;;
11614;SDS011;5863;52.832;4.758;2023-04-01T16:05:16;13.75;;;3.83;;
11614;SDS011;5863;52.832;4.758;2023-04-01T16:07:55;13.27;;;3.83;;
11614;SDS011;5863;52.832;4.758;2023-04-01T16:13:28;17.77;;;4.57;;
11614;SDS011;5863;52.832;4.758;2023-04-01T16:16:10;11.60;;;3.33;;
11614;SDS011;5863;52.832;4.758;2023-04-01T16:18:50;9.93;;;3.83;;
11614;SDS011;5863;52.832;4.758;2023-04-01T16:21:34;10.02;;;3.40;;
11614;SDS011;5863;52.832;4.758;2023-04-01T16:24:05;12.83;;;4.17;;
11614;SDS011;5863;52.832;4.758;2023-04-01T16:26:44;12.10;;;3.87;;
11614;SDS011;5863;52.832;4.758;2023-04-01T16:29:19;12.90;;;4.23;;
11614;SDS011;5863;52.832;4.758;2023-04-01T16:31:54;18.05;;;4.55;;
11614;SDS011;5863;52.832;4.758;2023-04-01T16:34:27;15.87;;;4.93;;
11614;SDS011;5863;52.832;4.758;2023-04-01T16:37:00;13.50;;;4.43;;
11614;SDS011;5863;52.832;4.758;2023-04-01T16:39:34;16.07;;;4.50;;
11614;SDS011;5863;52.832;4.758;2023-04-01T16:42:15;9.00;;;4.03;;
11614;SDS011;5863;52.832;4.758;2023-04-01T16:44:49;12.20;;;4.30;;
11614;SDS011;5863;52.832;4.758;2023-04-01T16:47:20;12.70;;;4.57;;
11614;SDS011;5863;52.832;4.758;2023-04-01T16:49:56;14.32;;;4.82;;
11614;SDS011;5863;52.832;4.758;2023-04-01T16:52:36;14.10;;;4.77;;
11614;SDS011;5863;52.832;4.758;2023-04-01T16:55:15;14.87;;;4.80;;
11614;SDS011;5863;52.832;4.758;2023-04-01T16:57:45;13.93;;;5.03;;
11614;SDS011;5863;52.832;4.758;2023-04-01T17:00:17;14.00;;;4.90;;
11614;SDS011;5863;52.832;4.758;2023-04-01T17:02:52;14.77;;;5.00;;
11614;SDS011;5863;52.832;4.758;2023-04-01T17:05:37;18.13;;;4.93;;
11614;SDS011;5863;52.832;4.758;2023-04-01T17:08:09;10.37;;;4.53;;
11614;SDS011;5863;52.832;4.758;2023-04-01T17:10:49;8.83;;;3.70;;